Belmont, Wisconsin
Current Conditions -  °F | °C
As of 4:15 AM on Friday 31 Oct 2014 (Local Time) from KPVB Reporting Station
Scattered Clouds Scattered Clouds  
Wind Chill: 21°   Ceiling: Unl
Heat Index: 33°   Visibility: 10mi
Dew Point: 20°   Wind: 23mph
Humidity: 59%   Direction: 340°NNW
Pressure: 30.2"   Gusts: 32mph
Location:  42.74°N, 90.33°W
Report Text: KPVB 310915Z AUTO 34020G28KT 10SM SCT043 01/M07 A3020 RMK AO1 T00071066
Loading
Personal Weather Stations






























Interactive Weather Map
Tropical Storm Tracking
New forecast layout! Learn more

10-Day Weather Forecast

Advertisements
Track Severe Weather on mobile